createdAt,value
2022-12-29T00:00:28.138Z,98623.86
2022-12-29T00:03:16.390Z,98620.62
2022-12-29T00:05:46.136Z,98623.04
2022-12-29T00:08:14.288Z,98619.45
2022-12-29T00:10:42.581Z,98620.84
2022-12-29T00:13:29.402Z,98617.59
2022-12-29T00:15:57.850Z,98614.02
2022-12-29T00:18:28.423Z,98609.58
2022-12-29T00:21:15.241Z,98613.02
2022-12-29T00:24:02.016Z,98615.76
2022-12-29T00:26:48.734Z,98614.39
2022-12-29T00:29:35.514Z,98618.34
2022-12-29T00:32:23.901Z,98617.48
2022-12-29T00:35:10.178Z,98615.09
2022-12-29T00:38:07.947Z,98616.82
2022-12-29T00:40:54.995Z,98616.80
2022-12-29T00:43:41.955Z,98617.48
2022-12-29T00:46:15.830Z,98620.58
2022-12-29T00:49:06.176Z,98624.85
2022-12-29T00:51:34.273Z,98619.05
2022-12-29T00:54:02.389Z,98621.95
2022-12-29T00:56:30.685Z,98622.46
2022-12-29T00:59:04.318Z,98622.63
2022-12-29T01:01:33.316Z,98621.41
2022-12-29T01:04:04.058Z,98618.15
2022-12-29T01:06:34.830Z,98621.73
2022-12-29T01:09:22.437Z,98620.20
2022-12-29T01:11:51.224Z,98614.19
2022-12-29T01:14:21.319Z,98611.11
2022-12-29T01:16:50.119Z,98609.73
2022-12-29T01:19:19.823Z,98609.41
2022-12-29T01:21:48.834Z,98609.23
2022-12-29T01:24:18.972Z,98605.30
2022-12-29T01:26:49.487Z,98605.30
2022-12-29T01:29:18.936Z,98605.48
2022-12-29T01:31:51.000Z,98599.86
2022-12-29T01:34:19.450Z,98597.64
2022-12-29T01:36:47.611Z,98597.81
2022-12-29T01:39:15.741Z,98596.44
2022-12-29T01:41:44.452Z,98596.45
2022-12-29T01:44:55.877Z,98594.72
2022-12-29T01:47:30.359Z,98589.92
2022-12-29T01:50:05.887Z,98586.16
2022-12-29T01:52:39.777Z,98585.32
2022-12-29T01:55:10.421Z,98582.41
2022-12-29T01:57:45.017Z,98583.60
2022-12-29T02:00:15.275Z,98581.39
2022-12-29T02:02:50.426Z,98583.45
2022-12-29T02:06:14.326Z,98575.41
2022-12-29T02:08:44.257Z,98572.67
2022-12-29T02:11:12.605Z,98570.11
2022-12-29T02:13:40.807Z,98569.08
2022-12-29T02:16:37.317Z,98566.19
2022-12-29T02:19:33.408Z,98561.05
2022-12-29T02:22:43.118Z,98561.73
2022-12-29T02:25:46.408Z,98560.20
2022-12-29T02:28:48.669Z,98566.36
2022-12-29T02:31:43.484Z,98566.87
2022-12-29T02:35:19.200Z,98568.25
2022-12-29T02:38:18.842Z,98570.80
2022-12-29T02:41:36.167Z,98567.73
2022-12-29T02:44:44.008Z,98569.79
2022-12-29T02:47:20.730Z,98569.10
2022-12-29T02:50:14.979Z,98564.65
2022-12-29T02:52:58.323Z,98564.32
2022-12-29T02:55:26.589Z,98562.25
2022-12-29T02:58:10.078Z,98558.84
2022-12-29T03:01:05.253Z,98554.56
2022-12-29T03:04:11.519Z,98558.14
2022-12-29T03:06:54.293Z,98561.56
2022-12-29T03:09:53.337Z,98569.60
2022-12-29T03:12:46.405Z,98570.80
2022-12-29T03:15:47.438Z,98570.11
2022-12-29T03:18:24.585Z,98571.48
2022-12-29T03:21:12.212Z,98575.25
2022-12-29T03:23:44.595Z,98581.41
2022-12-29T03:26:14.238Z,98580.89
2022-12-29T03:28:54.224Z,98575.77
2022-12-29T03:31:25.972Z,98573.20
2022-12-29T03:33:57.779Z,98573.54
2022-12-29T03:36:45.536Z,98573.04
2022-12-29T03:39:14.800Z,98578.33
2022-12-29T03:41:45.982Z,98579.19
2022-12-29T03:44:15.153Z,98582.61
2022-12-29T03:46:43.461Z,98585.86
2022-12-29T03:49:12.675Z,98584.67
2022-12-29T03:51:41.339Z,98580.55
2022-12-29T03:54:09.483Z,98583.46
2022-12-29T03:56:37.904Z,98583.63
2022-12-29T03:59:06.153Z,98583.45
2022-12-29T04:01:39.988Z,98583.64
2022-12-29T04:04:09.358Z,98582.44
2022-12-29T04:06:37.605Z,98575.42
2022-12-29T04:09:08.470Z,98575.77
2022-12-29T04:11:41.977Z,98574.91
2022-12-29T04:14:10.296Z,98576.45
2022-12-29T04:16:39.996Z,98581.77
2022-12-29T04:19:09.248Z,98580.55
2022-12-29T04:21:38.546Z,98579.70
2022-12-29T04:24:07.915Z,98582.27
2022-12-29T04:26:41.702Z,98576.98
2022-12-29T04:29:34.473Z,98574.57
2022-12-29T04:32:12.297Z,98570.30
2022-12-29T04:34:46.048Z,98567.21
2022-12-29T04:37:14.332Z,98569.61
2022-12-29T04:39:43.417Z,98572.68
2022-12-29T04:42:11.541Z,98573.36
2022-12-29T04:44:44.870Z,98577.98
2022-12-29T04:47:19.022Z,98573.36
2022-12-29T04:50:28.036Z,98569.24
2022-12-29T04:53:06.464Z,98562.57
2022-12-29T04:55:35.915Z,98562.21
2022-12-29T04:58:04.075Z,98562.55
2022-12-29T05:00:34.912Z,98564.61
2022-12-29T05:03:03.577Z,98567.68
2022-12-29T05:05:32.587Z,98559.97
2022-12-29T05:08:01.337Z,98555.00
2022-12-29T05:10:29.549Z,98555.67
2022-12-29T05:13:01.965Z,98553.95
2022-12-29T05:15:30.509Z,98556.02
2022-12-29T05:17:59.523Z,98561.98
2022-12-29T05:20:29.704Z,98561.30
2022-12-29T05:22:58.980Z,98569.83
2022-12-29T05:25:27.416Z,98571.52
2022-12-29T05:28:05.436Z,98570.16
2022-12-29T05:30:44.271Z,98571.17
2022-12-29T05:33:12.983Z,98575.45
2022-12-29T05:35:41.764Z,98577.65
2022-12-29T05:38:10.578Z,98580.02
2022-12-29T05:40:39.808Z,98583.95
2022-12-29T05:43:17.147Z,98582.91
2022-12-29T05:46:15.805Z,98580.69
2022-12-29T05:49:37.085Z,98579.82
2022-12-29T05:52:20.980Z,98578.11
2022-12-29T05:54:49.169Z,98578.27
2022-12-29T05:57:20.689Z,98582.54
2022-12-29T05:59:56.374Z,98578.80
2022-12-29T06:02:24.884Z,98587.51
2022-12-29T06:04:53.386Z,98596.75
2022-12-29T06:07:21.783Z,98595.91
2022-12-29T06:09:50.559Z,98595.59
2022-12-29T06:12:18.794Z,98602.27
2022-12-29T06:14:49.771Z,98609.14
2022-12-29T06:17:18.290Z,98619.41
2022-12-29T06:19:46.542Z,98626.78
2022-12-29T06:22:15.262Z,98629.38
2022-12-29T06:24:45.016Z,98631.45
2022-12-29T06:27:15.215Z,98634.36
2022-12-29T06:29:43.985Z,98634.70
2022-12-29T06:32:12.320Z,98637.10
2022-12-29T06:34:45.916Z,98636.08
2022-12-29T06:37:15.801Z,98636.09
2022-12-29T06:39:44.525Z,98639.48
2022-12-29T06:42:14.140Z,98644.27
2022-12-29T06:45:11.919Z,98641.01
2022-12-29T06:47:40.152Z,98637.08
2022-12-29T06:50:10.484Z,98644.26
2022-12-29T06:52:38.926Z,98647.98
2022-12-29T06:55:07.615Z,98645.77
2022-12-29T06:57:35.814Z,98642.02
2022-12-29T07:00:06.045Z,98640.34
2022-12-29T07:02:34.347Z,98638.30
2022-12-29T07:05:03.248Z,98636.95
2022-12-29T07:07:31.351Z,98646.38
2022-12-29T07:09:59.805Z,98645.20
2022-12-29T07:12:28.241Z,98637.85
2022-12-29T07:14:56.380Z,98633.39
2022-12-29T07:17:24.579Z,98636.13
2022-12-29T07:19:52.969Z,98637.15
2022-12-29T07:22:21.616Z,98636.82
2022-12-29T07:24:50.094Z,98630.85
2022-12-29T07:27:21.239Z,98632.05
2022-12-29T07:29:49.542Z,98631.02
2022-12-29T07:32:17.956Z,98632.73
2022-12-29T07:34:56.012Z,98626.07
2022-12-29T07:37:44.490Z,98629.83
2022-12-29T07:40:16.788Z,98626.05
2022-12-29T07:42:49.063Z,98627.95
2022-12-29T07:45:18.321Z,98627.95
2022-12-29T07:48:08.740Z,98623.16
2022-12-29T07:50:37.911Z,98618.18
2022-12-29T07:53:07.420Z,98616.33
2022-12-29T07:55:36.108Z,98625.56
2022-12-29T07:58:04.831Z,98624.36
2022-12-29T08:00:33.327Z,98618.54
2022-12-29T08:03:03.197Z,98614.44
2022-12-29T08:05:33.646Z,98612.20
2022-12-29T08:08:02.182Z,98604.85
2022-12-29T08:10:30.352Z,98602.80
2022-12-29T08:12:59.094Z,98606.05
2022-12-29T08:15:32.357Z,98604.51
2022-12-29T08:18:02.073Z,98602.45
2022-12-29T08:20:30.765Z,98604.52
2022-12-29T08:22:59.062Z,98599.38
2022-12-29T08:25:27.728Z,98598.17
2022-12-29T08:27:55.911Z,98598.02
2022-12-29T08:30:24.539Z,98593.73
2022-12-29T08:32:52.832Z,98595.61
2022-12-29T08:35:20.932Z,98595.79
2022-12-29T08:37:49.236Z,98598.17
2022-12-29T08:40:17.589Z,98598.18
2022-12-29T08:42:45.949Z,98593.39
2022-12-29T08:45:14.305Z,98595.45
2022-12-29T08:47:42.629Z,98589.62
2022-12-29T08:50:10.865Z,98586.02
2022-12-29T08:52:49.812Z,98592.00
2022-12-29T08:55:17.977Z,98595.94
2022-12-29T08:57:46.437Z,98589.92
2022-12-29T09:00:18.946Z,98584.06
2022-12-29T09:02:48.060Z,98588.14
2022-12-29T09:05:16.781Z,98580.23
2022-12-29T09:07:45.472Z,98574.70
2022-12-29T09:10:13.759Z,98567.83
2022-12-29T09:12:44.966Z,98566.09
2022-12-29T09:15:13.920Z,98559.20
2022-12-29T09:17:46.572Z,98559.18
2022-12-29T09:20:18.767Z,98554.89
2022-12-29T09:22:47.621Z,98551.09
2022-12-29T09:25:16.882Z,98542.90
2022-12-29T09:27:45.037Z,98535.38
2022-12-29T09:30:15.435Z,98535.73
2022-12-29T09:32:55.034Z,98540.04
2022-12-29T09:35:23.876Z,98544.34
2022-12-29T09:37:52.202Z,98545.90
2022-12-29T09:40:34.362Z,98539.93
2022-12-29T09:43:17.944Z,98534.45
2022-12-29T09:46:29.681Z,98526.55
2022-12-29T09:49:36.626Z,98518.30
2022-12-29T09:52:12.328Z,98513.80
2022-12-29T09:55:15.879Z,98511.88
2022-12-29T09:58:31.058Z,98513.70
2022-12-29T10:01:21.383Z,98517.88
2022-12-29T10:03:56.873Z,98512.54
2022-12-29T10:10:03.712Z,98511.55
2022-12-29T10:13:23.000Z,98515.81
2022-12-29T10:16:16.217Z,98516.29
2022-12-29T10:19:19.416Z,98516.08
2022-12-29T10:22:07.825Z,98508.64
2022-12-29T10:24:39.380Z,98505.97
2022-12-29T10:27:14.545Z,98509.48
2022-12-29T10:29:51.472Z,98510.40
2022-12-29T10:32:41.490Z,98513.55
2022-12-29T10:35:21.895Z,98514.67
2022-12-29T10:38:17.099Z,98510.81
2022-12-29T10:40:50.354Z,98510.18
2022-12-29T10:43:32.294Z,98509.74
2022-12-29T10:46:08.116Z,98509.10
2022-12-29T10:48:36.554Z,98502.80
2022-12-29T10:51:08.565Z,98494.71
2022-12-29T10:53:46.321Z,98491.26
2022-12-29T10:56:32.710Z,98490.91
2022-12-29T10:59:26.626Z,98492.25
2022-12-29T11:02:13.147Z,98490.45
2022-12-29T11:05:40.196Z,98487.15
2022-12-29T11:08:20.722Z,98486.94
2022-12-29T11:11:03.413Z,98484.08
2022-12-29T11:13:48.298Z,98480.13
2022-12-29T11:16:28.859Z,98474.25
2022-12-29T11:18:58.162Z,98466.80
2022-12-29T11:21:43.357Z,98458.85
2022-12-29T11:24:30.707Z,98453.63
2022-12-29T11:27:23.712Z,98460.26
2022-12-29T11:29:55.600Z,98461.39
2022-12-29T11:32:29.062Z,98453.80
2022-12-29T11:34:59.816Z,98451.69
2022-12-29T11:37:41.242Z,98451.34
2022-12-29T11:40:21.961Z,98451.93
2022-12-29T11:43:03.737Z,98442.51
2022-12-29T11:45:38.091Z,98438.02
2022-12-29T11:48:18.394Z,98430.61
2022-12-29T11:50:56.454Z,98430.95
2022-12-29T11:53:39.311Z,98431.15
2022-12-29T11:56:16.537Z,98430.48
2022-12-29T11:58:45.212Z,98429.06
2022-12-29T12:01:44.325Z,98430.45
2022-12-29T12:04:18.186Z,98427.23
2022-12-29T12:07:09.045Z,98434.45
2022-12-29T12:09:44.871Z,98432.52
2022-12-29T12:12:29.151Z,98429.06
2022-12-29T12:15:00.689Z,98415.09
2022-12-29T12:18:11.563Z,98415.79
2022-12-29T12:20:48.951Z,98408.83
2022-12-29T12:23:50.126Z,98404.86
2022-12-29T12:26:37.353Z,98400.94
2022-12-29T12:29:17.311Z,98396.08
2022-12-29T12:31:48.447Z,98396.27
2022-12-29T12:34:28.669Z,98393.47
2022-12-29T12:37:03.610Z,98392.35
2022-12-29T12:39:55.942Z,98385.71
2022-12-29T12:42:51.405Z,98382.34
2022-12-29T12:45:51.649Z,98382.78
2022-12-29T12:48:57.427Z,98382.70
2022-12-29T12:52:05.395Z,98389.34
2022-12-29T12:55:26.759Z,98383.39
2022-12-29T12:58:32.237Z,98388.11
2022-12-29T13:01:15.718Z,98390.90
2022-12-29T13:04:21.127Z,98389.70
2022-12-29T13:07:42.400Z,98390.80
2022-12-29T13:10:38.862Z,98393.86
2022-12-29T13:13:32.006Z,98396.65
2022-12-29T13:16:14.056Z,98404.58
2022-12-29T13:18:48.840Z,98403.52
2022-12-29T13:22:00.054Z,98403.13
2022-12-29T13:25:27.784Z,98403.64
2022-12-29T13:28:34.503Z,98412.98
2022-12-29T13:31:24.943Z,98408.48
2022-12-29T13:34:32.184Z,98405.16
2022-12-29T13:37:05.248Z,98402.38
2022-12-29T13:39:43.497Z,98403.29
2022-12-29T13:42:13.360Z,98400.44
2022-12-29T13:44:52.317Z,98398.48
2022-12-29T13:47:38.091Z,98395.46
2022-12-29T13:50:15.671Z,98399.20
2022-12-29T13:52:58.728Z,98407.23
2022-12-29T13:55:37.435Z,98410.52
2022-12-29T13:58:44.738Z,98406.29
2022-12-29T14:01:31.927Z,98411.50
2022-12-29T14:04:03.959Z,98412.94
2022-12-29T14:06:41.385Z,98412.60
2022-12-29T14:09:35.620Z,98412.10
2022-12-29T14:12:26.600Z,98415.41
2022-12-29T14:14:55.022Z,98416.67
2022-12-29T14:17:23.251Z,98410.88
2022-12-29T14:19:54.749Z,98407.99
2022-12-29T14:22:33.026Z,98407.14
2022-12-29T14:25:05.097Z,98407.34
2022-12-29T14:27:53.795Z,98406.67
2022-12-29T14:30:50.264Z,98407.83
2022-12-29T14:33:19.132Z,98407.79
2022-12-29T14:35:50.955Z,98408.99
2022-12-29T14:38:28.741Z,98406.76
2022-12-29T14:41:38.681Z,98402.79
2022-12-29T14:44:21.729Z,98396.77
2022-12-29T14:47:09.759Z,98393.66
2022-12-29T14:49:45.423Z,98392.81
2022-12-29T14:52:25.370Z,98393.56
2022-12-29T14:55:20.573Z,98395.48
2022-12-29T14:58:00.293Z,98392.83
2022-12-29T15:00:34.116Z,98392.58
2022-12-29T15:03:14.381Z,98397.45
2022-12-29T15:06:23.295Z,98388.77
2022-12-29T15:09:01.164Z,98383.37
2022-12-29T15:11:41.675Z,98385.58
2022-12-29T15:14:41.590Z,98381.77
2022-12-29T15:17:35.759Z,98379.59
2022-12-29T15:20:32.622Z,98376.73
2022-12-29T15:23:15.317Z,98376.98
2022-12-29T15:26:12.533Z,98374.30
2022-12-29T15:28:47.118Z,98374.03
2022-12-29T15:31:23.559Z,98376.30
2022-12-29T15:34:11.343Z,98374.98
2022-12-29T15:36:42.346Z,98377.09
2022-12-29T15:39:31.185Z,98381.95
2022-12-29T15:42:21.635Z,98374.80
2022-12-29T15:44:57.826Z,98373.13
2022-12-29T15:47:33.256Z,98376.14
2022-12-29T15:50:16.658Z,98373.45
2022-12-29T15:52:44.769Z,98378.00
2022-12-29T15:55:33.256Z,98379.61
2022-12-29T15:58:05.543Z,98380.47
2022-12-29T16:00:38.389Z,98384.11
2022-12-29T16:03:12.269Z,98388.77
2022-12-29T16:05:51.291Z,98391.52
2022-12-29T16:08:35.039Z,98389.12
2022-12-29T16:11:08.986Z,98386.91
2022-12-29T16:13:42.039Z,98395.00
2022-12-29T16:16:39.644Z,98392.45
2022-12-29T16:19:33.456Z,98390.88
2022-12-29T16:22:03.497Z,98390.30
2022-12-29T16:24:34.155Z,98395.05
2022-12-29T16:27:37.180Z,98399.40
2022-12-29T16:30:18.826Z,98403.38
2022-12-29T16:32:50.801Z,98401.18
2022-12-29T16:35:23.584Z,98399.70
2022-12-29T16:38:14.300Z,98400.48
2022-12-29T16:40:59.254Z,98410.54
2022-12-29T16:43:35.214Z,98396.18
2022-12-29T16:46:03.434Z,98396.47
2022-12-29T16:48:48.929Z,98392.12
2022-12-29T16:51:29.214Z,98388.98
2022-12-29T16:53:58.400Z,98393.27
2022-12-29T16:56:32.001Z,98393.52
2022-12-29T16:59:09.016Z,98392.16
2022-12-29T17:01:39.786Z,98391.32
2022-12-29T17:04:13.048Z,98386.68
2022-12-29T17:06:42.150Z,98388.42
2022-12-29T17:09:30.244Z,98381.77
2022-12-29T17:12:10.821Z,98379.75
2022-12-29T17:14:53.785Z,98382.05
2022-12-29T17:17:42.137Z,98383.11
2022-12-29T17:20:30.235Z,98380.04
2022-12-29T17:23:00.256Z,98371.45
2022-12-29T17:25:37.723Z,98359.27
2022-12-29T17:28:18.732Z,98363.27
2022-12-29T17:30:47.605Z,98362.27
2022-12-29T17:33:20.854Z,98363.80
2022-12-29T17:35:53.389Z,98372.73
2022-12-29T17:38:35.032Z,98359.67
2022-12-29T17:41:04.095Z,98353.50
2022-12-29T17:43:37.059Z,98357.48
2022-12-29T17:46:08.310Z,98359.19
2022-12-29T17:48:36.674Z,98352.49
2022-12-29T17:51:04.935Z,98351.63
2022-12-29T17:53:33.081Z,98349.20
2022-12-29T17:56:01.286Z,98351.46
2022-12-29T17:58:32.432Z,98363.15
2022-12-29T18:01:03.463Z,98357.66
2022-12-29T18:03:38.780Z,98350.26
2022-12-29T18:06:10.210Z,98350.57
2022-12-29T18:08:40.575Z,98346.80
2022-12-29T18:11:27.724Z,98348.67
2022-12-29T18:13:56.168Z,98331.27
2022-12-29T18:16:24.550Z,98335.02
2022-12-29T18:18:52.742Z,98341.37
2022-12-29T18:21:23.558Z,98347.55
2022-12-29T18:23:52.514Z,98351.19
2022-12-29T18:26:31.726Z,98355.50
2022-12-29T18:28:59.950Z,98355.49
2022-12-29T18:31:31.403Z,98358.95
2022-12-29T18:34:03.410Z,98350.73
2022-12-29T18:36:31.681Z,98355.20
2022-12-29T18:38:59.806Z,98361.40
2022-12-29T18:41:29.972Z,98355.02
2022-12-29T18:43:59.646Z,98349.70
2022-12-29T18:46:28.286Z,98353.66
2022-12-29T18:48:56.580Z,98356.25
2022-12-29T18:51:26.772Z,98350.27
2022-12-29T18:53:55.000Z,98350.26
2022-12-29T18:56:24.293Z,98341.59
2022-12-29T18:58:53.650Z,98334.41
2022-12-29T19:01:25.520Z,98329.64
2022-12-29T19:03:54.347Z,98332.44
2022-12-29T19:06:23.303Z,98337.78
2022-12-29T19:08:51.525Z,98339.52
2022-12-29T19:11:19.635Z,98341.29
2022-12-29T19:13:47.873Z,98337.25
2022-12-29T19:16:22.310Z,98322.91
2022-12-29T19:19:07.800Z,98317.14
2022-12-29T19:21:37.821Z,98317.60
2022-12-29T19:24:06.967Z,98318.08
2022-12-29T19:26:38.665Z,98318.91
2022-12-29T19:29:13.841Z,98310.30
2022-12-29T19:31:42.617Z,98316.91
2022-12-29T19:34:17.304Z,98315.70
2022-12-29T19:36:46.145Z,98320.89
2022-12-29T19:39:14.782Z,98323.89
2022-12-29T19:41:43.072Z,98324.83
2022-12-29T19:44:11.324Z,98313.99
2022-12-29T19:46:39.637Z,98319.13
2022-12-29T19:49:07.932Z,98322.20
2022-12-29T19:51:36.166Z,98317.73
2022-12-29T19:54:04.639Z,98319.08
2022-12-29T19:56:32.838Z,98316.83
2022-12-29T19:59:01.073Z,98311.86
2022-12-29T20:01:29.433Z,98311.69
2022-12-29T20:03:57.815Z,98312.06
2022-12-29T20:06:26.068Z,98298.20
2022-12-29T20:08:55.625Z,98283.46
2022-12-29T20:11:24.025Z,98287.83
2022-12-29T20:13:52.311Z,98283.41
2022-12-29T20:16:21.112Z,98285.49
2022-12-29T20:18:49.585Z,98290.54
2022-12-29T20:21:21.147Z,98293.30
2022-12-29T20:23:51.747Z,98287.80
2022-12-29T20:26:27.848Z,98283.83
2022-12-29T20:28:58.122Z,98278.30
2022-12-29T20:31:31.228Z,98273.46
2022-12-29T20:33:59.808Z,98274.83
2022-12-29T20:36:32.444Z,98277.75
2022-12-29T20:39:05.833Z,98277.39
2022-12-29T20:41:36.617Z,98280.23
2022-12-29T20:44:05.679Z,98277.41
2022-12-29T20:46:43.004Z,98279.39
2022-12-29T20:49:12.273Z,98272.40
2022-12-29T20:54:37.087Z,98265.06
2022-12-29T20:57:08.152Z,98272.13
2022-12-29T20:59:37.285Z,98277.20
2022-12-29T21:02:05.852Z,98277.63
2022-12-29T21:05:05.111Z,98270.44
2022-12-29T21:07:22.640Z,98278.63
2022-12-29T21:09:51.146Z,98281.34
2022-12-29T21:12:19.423Z,98284.94
2022-12-29T21:14:47.697Z,98285.77
2022-12-29T21:17:15.868Z,98281.64
2022-12-29T21:19:44.232Z,98277.18
2022-12-29T21:22:12.337Z,98280.36
2022-12-29T21:24:40.494Z,98286.13
2022-12-29T21:27:08.887Z,98290.79
2022-12-29T21:29:37.098Z,98292.35
2022-12-29T21:32:06.813Z,98287.03
2022-12-29T21:34:35.909Z,98281.03
2022-12-29T21:37:04.079Z,98275.71
2022-12-29T21:39:32.272Z,98275.92
2022-12-29T21:42:00.774Z,98276.16
2022-12-29T21:44:48.017Z,98260.86
2022-12-29T21:47:16.136Z,98250.74
2022-12-29T21:49:44.306Z,98250.11
2022-12-29T21:52:12.456Z,98237.08
2022-12-29T21:54:58.997Z,98239.30
2022-12-29T21:57:45.551Z,98240.84
2022-12-29T22:00:35.259Z,98247.25
2022-12-29T22:03:23.636Z,98252.76
2022-12-29T22:06:11.521Z,98251.56
2022-12-29T22:08:58.944Z,98244.09
2022-12-29T22:11:46.438Z,98242.98
2022-12-29T22:14:14.683Z,98242.52
2022-12-29T22:16:43.136Z,98240.84
2022-12-29T22:19:11.428Z,98241.25
2022-12-29T22:21:39.662Z,98250.05
2022-12-29T22:24:08.942Z,98246.96
2022-12-29T22:26:37.326Z,98243.01
2022-12-29T22:29:05.912Z,98232.50
2022-12-29T22:31:34.198Z,98236.30
2022-12-29T22:34:05.068Z,98258.35
2022-12-29T22:36:33.892Z,98243.95
2022-12-29T22:39:02.117Z,98241.24
2022-12-29T22:41:30.332Z,98246.05
2022-12-29T22:43:58.498Z,98240.63
2022-12-29T22:46:26.751Z,98238.79
2022-12-29T22:48:58.506Z,98233.59
2022-12-29T22:51:26.749Z,98233.52
2022-12-29T22:53:55.106Z,98230.58
2022-12-29T22:56:23.228Z,98226.97
2022-12-29T22:58:51.491Z,98229.10
2022-12-29T23:01:22.703Z,98239.56
2022-12-29T23:03:51.207Z,98243.29
2022-12-29T23:06:19.599Z,98241.04
2022-12-29T23:08:48.136Z,98235.30
2022-12-29T23:11:16.962Z,98229.94
2022-12-29T23:13:45.145Z,98228.56
2022-12-29T23:16:15.455Z,98234.27
2022-12-29T23:18:45.885Z,98230.16
2022-12-29T23:21:16.593Z,98226.05
2022-12-29T23:23:54.810Z,98219.88
2022-12-29T23:26:26.912Z,98223.85
2022-12-29T23:29:00.252Z,98220.48
2022-12-29T23:31:29.845Z,98226.09
2022-12-29T23:34:00.516Z,98231.51
2022-12-29T23:36:29.848Z,98228.77
2022-12-29T23:38:58.619Z,98225.55
2022-12-29T23:41:27.319Z,98225.96
2022-12-29T23:43:55.859Z,98229.14
2022-12-29T23:46:27.785Z,98233.94
2022-12-29T23:48:56.428Z,98236.52
2022-12-29T23:51:24.654Z,98232.92
2022-12-29T23:53:52.870Z,98227.59
2022-12-29T23:56:23.452Z,98225.33
2022-12-29T23:58:51.940Z,98228.44
